Terminal Aerodrome Forecast
Issued by NWS

Home | Current Version | Previous Version | Text Only | Print | Product List | Glossary On
Versions: 1 2 3 4 5 6 7 8 9 10 11 12 13 14 15 16 17 18 19 20
806
FTUS43 KGRB 251139
TAFCWA
TAF
KCWA 251139Z 2512/2612 VRB03KT P6SM BKN150
      TEMPO 2512/2514 -SHRA BKN060
     FM251600 17008KT P6SM SCT035 BKN150
     FM260400 19006KT P6SM BKN035 WS002/21035KT PROB30 2604/2608 5SM
      -TSRA BKN060CB
     FM260800 19005KT P6SM SCT025 OVC040
      TEMPO 2608/2612 3SM -TSRA BKN025CB=

USA.gov is the U.S. government's official web portal to all federal, state and local government web resources and services.